createdAt,value
2019-03-13T00:00:16.037Z,12.70
2019-03-13T00:04:35.861Z,12.70
2019-03-13T00:08:54.414Z,12.70
2019-03-13T00:13:12.766Z,12.70
2019-03-13T00:17:30.922Z,12.70
2019-03-13T00:21:49.091Z,12.60
2019-03-13T00:26:07.758Z,12.50
2019-03-13T00:30:26.028Z,12.40
2019-03-13T00:34:44.384Z,12.30
2019-03-13T00:39:02.525Z,12.20
2019-03-13T00:43:22.465Z,12.00
2019-03-13T00:47:40.652Z,11.80
2019-03-13T00:51:58.821Z,11.60
2019-03-13T00:56:16.905Z,11.40
2019-03-13T01:01:00.796Z,11.30
2019-03-13T01:05:40.835Z,11.10
2019-03-13T01:09:59.328Z,10.90
2019-03-13T01:14:17.571Z,10.70
2019-03-13T01:18:35.898Z,10.60
2019-03-13T01:22:54.141Z,10.50
2019-03-13T01:27:12.421Z,10.40
2019-03-13T01:32:04.634Z,10.30
2019-03-13T01:36:22.790Z,10.20
2019-03-13T01:40:40.880Z,10.10
2019-03-13T01:44:59.006Z,10.10
2019-03-13T01:49:17.620Z,10.00
2019-03-13T01:53:35.774Z,10.00
2019-03-13T01:57:54.438Z,10.00
2019-03-13T02:02:12.920Z,9.90
2019-03-13T02:06:32.121Z,9.90
2019-03-13T02:10:50.530Z,9.80
2019-03-13T02:15:11.022Z,9.80
2019-03-13T02:19:29.278Z,9.80
2019-03-13T02:23:47.467Z,9.70
2019-03-13T02:28:05.633Z,9.70
2019-03-13T02:32:23.799Z,9.70
2019-03-13T02:36:42.112Z,9.60
2019-03-13T02:41:00.243Z,9.60
2019-03-13T02:45:18.516Z,9.50
2019-03-13T02:49:36.686Z,9.40
2019-03-13T02:53:55.015Z,9.30
2019-03-13T02:58:13.623Z,9.20
2019-03-13T03:02:40.151Z,9.20
2019-03-13T03:06:58.432Z,9.10
2019-03-13T03:11:16.706Z,9.00
2019-03-13T03:15:34.724Z,9.00
2019-03-13T03:19:52.877Z,8.90
2019-03-13T03:24:11.100Z,8.90
2019-03-13T03:28:29.194Z,8.80
2019-03-13T03:32:47.433Z,8.70
2019-03-13T03:37:05.588Z,8.70
2019-03-13T03:41:23.793Z,8.60
2019-03-13T03:45:41.868Z,8.60
2019-03-13T03:50:00.128Z,8.60
2019-03-13T03:54:18.302Z,8.60
2019-03-13T03:58:36.489Z,8.50
2019-03-13T04:02:54.591Z,8.50
2019-03-13T04:07:12.742Z,8.50
2019-03-13T04:11:32.382Z,8.50
2019-03-13T04:15:51.056Z,8.50
2019-03-13T04:20:10.423Z,8.40
2019-03-13T04:24:28.484Z,8.40
2019-03-13T04:28:46.612Z,8.40
2019-03-13T04:33:04.892Z,8.30
2019-03-13T04:37:23.683Z,8.30
2019-03-13T04:41:42.086Z,8.30
2019-03-13T04:46:00.665Z,8.30
2019-03-13T04:50:19.110Z,8.30
2019-03-13T04:54:37.456Z,8.20
2019-03-13T04:58:55.941Z,8.20
2019-03-13T05:03:14.678Z,8.20
2019-03-13T05:07:32.882Z,8.10
2019-03-13T05:11:51.139Z,8.10
2019-03-13T05:16:09.550Z,8.10
2019-03-13T05:20:27.864Z,8.20
2019-03-13T05:24:46.090Z,8.20
2019-03-13T05:29:04.114Z,8.20
2019-03-13T05:33:22.284Z,8.20
2019-03-13T05:37:40.486Z,8.20
2019-03-13T05:41:58.735Z,8.20
2019-03-13T05:46:20.177Z,8.10
2019-03-13T05:50:38.453Z,8.10
2019-03-13T05:54:56.701Z,8.10
2019-03-13T05:59:15.739Z,8.00
2019-03-13T06:03:34.475Z,8.00
2019-03-13T06:07:52.698Z,8.00
2019-03-13T06:12:10.990Z,7.90
2019-03-13T06:16:30.203Z,7.90
2019-03-13T06:20:48.455Z,7.90
2019-03-13T06:25:07.742Z,7.90
2019-03-13T06:29:26.050Z,7.90
2019-03-13T06:33:45.255Z,7.90
2019-03-13T06:38:03.807Z,7.90
2019-03-13T06:42:22.018Z,8.00
2019-03-13T06:46:40.132Z,8.10
2019-03-13T06:51:01.889Z,8.20
2019-03-13T06:55:20.631Z,8.40
2019-03-13T06:59:56.911Z,8.60
2019-03-13T07:04:40.142Z,8.80
2019-03-13T07:09:20.494Z,9.00
2019-03-13T07:13:57.527Z,8.90
2019-03-13T07:18:43.476Z,8.90
2019-03-13T07:23:09.324Z,8.90
2019-03-13T07:27:36.202Z,9.00
2019-03-13T07:32:13.337Z,9.20
2019-03-13T07:36:38.764Z,9.40
2019-03-13T07:41:09.064Z,9.60
2019-03-13T07:45:45.157Z,9.60
2019-03-13T07:50:22.265Z,9.70
2019-03-13T07:55:00.590Z,9.80
2019-03-13T07:59:45.280Z,9.80
2019-03-13T08:04:24.542Z,9.70
2019-03-13T08:09:19.927Z,9.60
2019-03-13T08:13:46.542Z,9.90
2019-03-13T08:18:22.248Z,10.70
2019-03-13T08:23:17.602Z,11.70
2019-03-13T08:27:54.638Z,12.80
2019-03-13T08:32:38.923Z,13.90
2019-03-13T08:37:22.469Z,14.70
2019-03-13T08:41:54.343Z,15.00
2019-03-13T08:46:32.789Z,15.10
2019-03-13T08:51:12.987Z,14.90
2019-03-13T08:55:48.749Z,14.30
2019-03-13T09:00:32.347Z,13.70
2019-03-13T09:05:07.226Z,13.20
2019-03-13T09:09:47.724Z,12.60
2019-03-13T09:14:27.706Z,12.20
2019-03-13T09:18:54.812Z,12.30
2019-03-13T09:23:31.933Z,13.00
2019-03-13T09:28:13.905Z,13.80
2019-03-13T09:33:00.544Z,14.80
2019-03-13T09:37:38.059Z,15.70
2019-03-13T09:42:18.018Z,16.50
2019-03-13T09:47:04.716Z,17.10
2019-03-13T09:51:44.447Z,17.70
2019-03-13T09:56:25.904Z,18.20
2019-03-13T10:01:02.891Z,18.50
2019-03-13T10:05:49.061Z,18.30
2019-03-13T10:10:25.971Z,18.00
2019-03-13T10:15:08.853Z,17.70
2019-03-13T10:19:37.687Z,17.80
2019-03-13T10:24:14.691Z,18.30
2019-03-13T10:28:51.446Z,18.90
2019-03-13T10:33:37.927Z,18.80
2019-03-13T10:38:43.774Z,18.70
2019-03-13T10:43:26.108Z,18.80
2019-03-13T10:48:05.702Z,18.70
2019-03-13T10:52:57.986Z,18.50
2019-03-13T10:57:59.217Z,18.00
2019-03-13T11:03:03.448Z,17.50
2019-03-13T11:07:42.958Z,16.90
2019-03-13T11:12:24.782Z,16.80
2019-03-13T11:17:19.933Z,16.90
2019-03-13T11:21:46.533Z,16.70
2019-03-13T11:26:22.635Z,16.30
2019-03-13T11:30:59.001Z,15.80
2019-03-13T11:35:41.945Z,15.20
2019-03-13T11:40:17.759Z,14.60
2019-03-13T11:44:46.228Z,14.10
2019-03-13T11:49:32.767Z,13.60
2019-03-13T11:54:15.928Z,13.20
2019-03-13T11:58:56.169Z,12.80
2019-03-13T12:03:33.256Z,12.50
2019-03-13T12:08:09.845Z,12.30
2019-03-13T12:12:50.023Z,12.30
2019-03-13T12:17:23.821Z,12.20
2019-03-13T12:22:09.851Z,12.20
2019-03-13T12:26:58.842Z,12.30
2019-03-13T12:31:33.272Z,12.40
2019-03-13T12:36:13.393Z,12.60
2019-03-13T12:40:53.190Z,12.90
2019-03-13T12:45:33.784Z,13.00
2019-03-13T12:50:20.207Z,13.00
2019-03-13T12:54:50.688Z,13.10
2019-03-13T12:59:27.669Z,13.20
2019-03-13T13:04:09.123Z,13.30
2019-03-13T13:09:04.624Z,13.50
2019-03-13T13:13:42.097Z,13.70
2019-03-13T13:18:19.098Z,13.70
2019-03-13T13:22:37.396Z,13.50
2019-03-13T13:26:55.579Z,13.00
2019-03-13T13:31:13.587Z,12.60
2019-03-13T13:35:31.749Z,12.10
2019-03-13T13:39:50.150Z,11.60
2019-03-13T13:44:08.376Z,11.30
2019-03-13T13:48:26.615Z,11.10
2019-03-13T13:52:44.843Z,11.00
2019-03-13T13:57:02.946Z,11.00
2019-03-13T14:01:21.206Z,11.00
2019-03-13T14:05:41.117Z,11.10
2019-03-13T14:10:00.159Z,11.10
2019-03-13T14:14:18.603Z,11.30
2019-03-13T14:18:37.132Z,11.40
2019-03-13T14:22:55.403Z,11.50
2019-03-13T14:27:15.106Z,11.60
2019-03-13T14:31:33.361Z,11.70
2019-03-13T14:35:51.522Z,11.80
2019-03-13T14:40:10.853Z,11.90
2019-03-13T14:44:29.191Z,12.10
2019-03-13T14:48:47.349Z,12.30
2019-03-13T14:53:05.495Z,12.30
2019-03-13T14:57:23.621Z,12.40
2019-03-13T15:01:42.166Z,12.50
2019-03-13T15:06:00.434Z,12.50
2019-03-13T15:10:19.020Z,12.40
2019-03-13T15:14:39.327Z,12.40
2019-03-13T15:18:58.430Z,12.30
2019-03-13T15:23:16.715Z,12.30
2019-03-13T15:27:34.962Z,12.20
2019-03-13T15:31:53.418Z,12.20
2019-03-13T15:36:11.855Z,12.20
2019-03-13T15:40:30.095Z,12.20
2019-03-13T15:44:48.553Z,12.10
2019-03-13T15:49:08.088Z,12.10
2019-03-13T15:53:26.137Z,12.00
2019-03-13T15:57:44.346Z,11.90
2019-03-13T16:02:02.565Z,11.90
2019-03-13T16:06:20.734Z,11.90
2019-03-13T16:10:39.241Z,11.90
2019-03-13T16:14:57.449Z,11.80
2019-03-13T16:19:15.672Z,11.80
2019-03-13T16:23:33.857Z,11.80
2019-03-13T16:27:52.059Z,11.70
2019-03-13T16:32:13.601Z,11.70
2019-03-13T16:36:32.053Z,11.60
2019-03-13T16:40:51.324Z,11.50
2019-03-13T16:45:11.019Z,11.50
2019-03-13T16:49:29.337Z,11.40
2019-03-13T16:53:47.663Z,11.40
2019-03-13T16:58:07.206Z,11.30
2019-03-13T17:02:25.399Z,11.30
2019-03-13T17:06:43.684Z,11.20
2019-03-13T17:11:01.717Z,11.10
2019-03-13T17:15:22.619Z,11.00
2019-03-13T17:19:40.772Z,10.90
2019-03-13T17:23:58.987Z,10.90
2019-03-13T17:28:18.232Z,10.80
2019-03-13T17:32:36.496Z,10.80
2019-03-13T17:36:54.638Z,10.70
2019-03-13T17:41:13.021Z,10.70
2019-03-13T17:45:32.252Z,10.60
2019-03-13T17:49:50.579Z,10.50
2019-03-13T17:54:11.043Z,10.50
2019-03-13T17:58:29.268Z,10.50
2019-03-13T18:02:47.547Z,10.50
2019-03-13T18:07:06.550Z,10.50
2019-03-13T18:11:24.737Z,10.50
2019-03-13T18:15:43.135Z,10.50
2019-03-13T18:20:01.864Z,10.50
2019-03-13T18:24:20.935Z,10.40
2019-03-13T18:28:39.321Z,10.40
2019-03-13T18:32:58.146Z,10.30
2019-03-13T18:37:16.603Z,10.20
2019-03-13T18:41:35.031Z,10.20
2019-03-13T18:45:53.181Z,10.10
2019-03-13T18:50:12.541Z,10.10
2019-03-13T18:54:31.017Z,10.00
2019-03-13T18:58:50.009Z,9.90
2019-03-13T19:03:09.829Z,9.80
2019-03-13T19:07:28.384Z,9.70
2019-03-13T19:11:46.535Z,9.60
2019-03-13T19:16:05.017Z,9.50
2019-03-13T19:20:24.500Z,9.50
2019-03-13T19:24:42.687Z,9.40
2019-03-13T19:29:01.722Z,9.30
2019-03-13T19:33:20.139Z,9.20
2019-03-13T19:37:38.757Z,9.10
2019-03-13T19:41:57.088Z,9.00
2019-03-13T19:46:16.080Z,9.00
2019-03-13T19:50:34.189Z,8.90
2019-03-13T19:54:52.699Z,8.90
2019-03-13T19:59:11.302Z,8.80
2019-03-13T20:03:29.717Z,8.80
2019-03-13T20:07:48.418Z,8.70
2019-03-13T20:12:06.617Z,8.70
2019-03-13T20:16:27.250Z,8.70
2019-03-13T20:20:45.721Z,8.70
2019-03-13T20:25:04.102Z,8.60
2019-03-13T20:29:23.284Z,8.60
2019-03-13T20:33:42.208Z,8.60
2019-03-13T20:38:00.402Z,8.60
2019-03-13T20:42:18.710Z,8.60
2019-03-13T20:46:37.176Z,8.60
2019-03-13T20:50:55.526Z,8.70
2019-03-13T20:55:15.028Z,8.80
2019-03-13T20:59:33.476Z,8.80
2019-03-13T21:03:52.771Z,8.80
2019-03-13T21:08:11.427Z,8.90
2019-03-13T21:12:30.225Z,8.90
2019-03-13T21:16:50.321Z,8.90
2019-03-13T21:21:11.366Z,8.90
2019-03-13T21:25:31.836Z,8.90
2019-03-13T21:29:52.657Z,8.80
2019-03-13T21:34:12.092Z,8.80
2019-03-13T21:38:32.571Z,8.70
2019-03-13T21:42:54.402Z,8.60
2019-03-13T21:47:12.325Z,8.60
2019-03-13T21:51:30.683Z,8.50
2019-03-13T21:55:48.885Z,8.30
2019-03-13T22:00:12.817Z,8.20
2019-03-13T22:04:31.853Z,8.10
2019-03-13T22:08:50.094Z,8.00
2019-03-13T22:13:08.399Z,8.00
2019-03-13T22:17:27.070Z,7.90
2019-03-13T22:21:45.290Z,7.90
2019-03-13T22:26:03.315Z,7.90
2019-03-13T22:30:22.251Z,7.90
2019-03-13T22:34:40.658Z,7.90
2019-03-13T22:38:58.928Z,7.90
2019-03-13T22:43:17.117Z,7.90
2019-03-13T22:47:42.696Z,7.90
2019-03-13T22:51:55.327Z,8.00
2019-03-13T22:56:13.958Z,7.90
2019-03-13T23:01:00.165Z,7.90
2019-03-13T23:05:20.319Z,7.90
2019-03-13T23:09:38.932Z,7.90
2019-03-13T23:13:57.032Z,7.90
2019-03-13T23:18:18.057Z,7.80
2019-03-13T23:22:35.256Z,7.90
2019-03-13T23:26:53.415Z,7.90
2019-03-13T23:31:11.592Z,7.90
2019-03-13T23:35:29.841Z,7.90
2019-03-13T23:39:48.079Z,8.00
2019-03-13T23:44:06.326Z,8.00
2019-03-13T23:48:24.497Z,8.00
2019-03-13T23:52:42.571Z,8.00
2019-03-13T23:57:00.737Z,8.10
